sensor_id;sensor_type;location;lat;lon;timestamp;pressure;altitude;pressure_sealevel;temperature;humidity
8501;BME280;4288;48.484;10.024;2022-09-28T06:21:31;93664.25;;;16.04;72.04
8501;BME280;4288;48.484;10.024;2022-09-28T06:23:58;93666.94;;;16.04;72.00
8501;BME280;4288;48.484;10.024;2022-09-28T06:26:25;93661.28;;;16.02;72.07
8501;BME280;4288;48.484;10.024;2022-09-28T06:28:52;93658.88;;;16.04;72.01
8501;BME280;4288;48.484;10.024;2022-09-28T06:31:19;93667.41;;;16.03;71.93
8501;BME280;4288;48.484;10.024;2022-09-28T06:33:49;93667.56;;;15.99;71.98
8501;BME280;4288;48.484;10.024;2022-09-28T06:36:16;93677.16;;;16.00;72.01
8501;BME280;4288;48.484;10.024;2022-09-28T06:38:45;93676.69;;;16.02;71.92
8501;BME280;4288;48.484;10.024;2022-09-28T06:41:13;93680.59;;;16.01;71.92
8501;BME280;4288;48.484;10.024;2022-09-28T06:43:40;93680.59;;;16.01;72.06
8501;BME280;4288;48.484;10.024;2022-09-28T06:46:09;93697.50;;;16.01;72.08
8501;BME280;4288;48.484;10.024;2022-09-28T06:48:36;93698.25;;;16.02;72.01
8501;BME280;4288;48.484;10.024;2022-09-28T06:51:03;93703.34;;;16.00;72.09
8501;BME280;4288;48.484;10.024;2022-09-28T06:53:31;93712.63;;;15.99;72.16
8501;BME280;4288;48.484;10.024;2022-09-28T06:56:00;93699.47;;;16.01;72.14
8501;BME280;4288;48.484;10.024;2022-09-28T06:58:27;93701.09;;;15.98;72.11
8501;BME280;4288;48.484;10.024;2022-09-28T07:00:56;93710.66;;;15.99;72.21
8501;BME280;4288;48.484;10.024;2022-09-28T07:03:25;93716.81;;;16.00;72.32
8501;BME280;4288;48.484;10.024;2022-09-28T07:05:53;93711.41;;;16.00;72.49
8501;BME280;4288;48.484;10.024;2022-09-28T07:08:22;93707.97;;;15.99;72.49
8501;BME280;4288;48.484;10.024;2022-09-28T07:10:52;93717.28;;;15.98;72.61
8501;BME280;4288;48.484;10.024;2022-09-28T07:13:23;93715.19;;;15.93;72.60
8501;BME280;4288;48.484;10.024;2022-09-28T07:15:53;93725.34;;;15.98;72.52
8501;BME280;4288;48.484;10.024;2022-09-28T07:18:21;93722.19;;;16.00;72.45
8501;BME280;4288;48.484;10.024;2022-09-28T07:20:49;93722.66;;;15.98;72.47
8501;BME280;4288;48.484;10.024;2022-09-28T07:23:16;93728.81;;;15.99;72.30
8501;BME280;4288;48.484;10.024;2022-09-28T07:25:44;93729.53;;;15.99;72.49
8501;BME280;4288;48.484;10.024;2022-09-28T07:28:14;93737.63;;;15.99;72.30
8501;BME280;4288;48.484;10.024;2022-09-28T07:30:43;93745.41;;;15.97;72.38
8501;BME280;4288;48.484;10.024;2022-09-28T07:33:12;93746.16;;;15.98;72.46
8501;BME280;4288;48.484;10.024;2022-09-28T07:35:40;93746.63;;;15.96;72.51
8501;BME280;4288;48.484;10.024;2022-09-28T07:38:09;93753.50;;;15.97;72.56
8501;BME280;4288;48.484;10.024;2022-09-28T07:40:36;93757.41;;;15.96;72.54
8501;BME280;4288;48.484;10.024;2022-09-28T07:43:21;93753.66;;;15.94;72.35
8501;BME280;4288;48.484;10.024;2022-09-28T07:45:51;93762.63;;;16.00;72.30
8501;BME280;4288;48.484;10.024;2022-09-28T07:48:20;93768.47;;;15.98;72.26
8501;BME280;4288;48.484;10.024;2022-09-28T07:50:48;93769.94;;;15.99;72.24
8501;BME280;4288;48.484;10.024;2022-09-28T07:53:16;93773.09;;;15.98;72.11
8501;BME280;4288;48.484;10.024;2022-09-28T07:55:49;93776.56;;;15.98;72.27
8501;BME280;4288;48.484;10.024;2022-09-28T07:58:16;93777.31;;;15.99;72.05
8501;BME280;4288;48.484;10.024;2022-09-28T08:00:44;93786.13;;;15.99;72.09
8501;BME280;4288;48.484;10.024;2022-09-28T08:03:14;93791.50;;;15.99;72.04
8501;BME280;4288;48.484;10.024;2022-09-28T08:05:42;93791.22;;;15.97;71.96
8501;BME280;4288;48.484;10.024;2022-09-28T08:08:09;93796.47;;;16.01;72.24
8501;BME280;4288;48.484;10.024;2022-09-28T08:10:36;93795.72;;;16.00;72.21
8501;BME280;4288;48.484;10.024;2022-09-28T08:13:04;93795.72;;;16.00;72.33
8501;BME280;4288;48.484;10.024;2022-09-28T08:15:32;93805.72;;;16.00;72.42
8501;BME280;4288;48.484;10.024;2022-09-28T08:18:02;93809.19;;;16.00;72.43
8501;BME280;4288;48.484;10.024;2022-09-28T08:20:31;93816.06;;;16.01;72.48
8501;BME280;4288;48.484;10.024;2022-09-28T08:23:16;93813.97;;;15.96;72.61
8501;BME280;4288;48.484;10.024;2022-09-28T08:25:46;93806.94;;;15.99;72.79
8501;BME280;4288;48.484;10.024;2022-09-28T08:28:14;93825.81;;;15.99;72.82
8501;BME280;4288;48.484;10.024;2022-09-28T08:30:44;93819.19;;;16.00;72.91
8501;BME280;4288;48.484;10.024;2022-09-28T08:33:11;93825.81;;;15.99;73.02
8501;BME280;4288;48.484;10.024;2022-09-28T08:35:40;93826.53;;;15.99;73.10
8501;BME280;4288;48.484;10.024;2022-09-28T08:38:08;93828.50;;;15.99;72.93
8501;BME280;4288;48.484;10.024;2022-09-28T08:40:46;93822.22;;;15.93;73.15
8501;BME280;4288;48.484;10.024;2022-09-28T08:43:29;93823.25;;;15.95;73.01
8501;BME280;4288;48.484;10.024;2022-09-28T08:46:03;93841.97;;;15.99;72.92
8501;BME280;4288;48.484;10.024;2022-09-28T08:48:34;93835.84;;;15.98;72.74
8501;BME280;4288;48.484;10.024;2022-09-28T08:51:18;93840.75;;;16.00;72.57
8501;BME280;4288;48.484;10.024;2022-09-28T08:53:52;93843.16;;;15.98;72.55
8501;BME280;4288;48.484;10.024;2022-09-28T08:56:29;93842.28;;;15.92;72.68
8501;BME280;4288;48.484;10.024;2022-09-28T08:59:00;93842.13;;;15.95;72.52
8501;BME280;4288;48.484;10.024;2022-09-28T09:01:34;93840.94;;;15.96;72.53
8501;BME280;4288;48.484;10.024;2022-09-28T09:04:05;93846.31;;;15.96;72.57
8501;BME280;4288;48.484;10.024;2022-09-28T09:06:53;93844.38;;;15.97;72.73
8501;BME280;4288;48.484;10.024;2022-09-28T09:09:41;93855.44;;;15.99;72.83
8501;BME280;4288;48.484;10.024;2022-09-28T09:12:17;93853.34;;;15.94;73.10
8501;BME280;4288;48.484;10.024;2022-09-28T09:18:17;93866.94;;;15.99;73.01
8501;BME280;4288;48.484;10.024;2022-09-28T09:20:53;93868.16;;;15.98;72.96
8501;BME280;4288;48.484;10.024;2022-09-28T09:23:35;93879.41;;;15.97;72.90
8501;BME280;4288;48.484;10.024;2022-09-28T09:26:12;93876.72;;;15.97;73.08
8501;BME280;4288;48.484;10.024;2022-09-28T09:29:08;93877.44;;;15.97;73.32
8501;BME280;4288;48.484;10.024;2022-09-28T09:31:53;93884.34;;;15.98;73.54
8501;BME280;4288;48.484;10.024;2022-09-28T09:34:48;93885.53;;;15.97;73.53
8501;BME280;4288;48.484;10.024;2022-09-28T09:37:34;93890.59;;;15.95;73.47
8501;BME280;4288;48.484;10.024;2022-09-28T09:40:25;93895.72;;;15.93;73.50
8501;BME280;4288;48.484;10.024;2022-09-28T09:43:06;93902.16;;;15.96;73.50
8501;BME280;4288;48.484;10.024;2022-09-28T09:45:54;93898.56;;;15.90;73.27
8501;BME280;4288;48.484;10.024;2022-09-28T09:48:29;93898.13;;;15.91;73.38
8501;BME280;4288;48.484;10.024;2022-09-28T09:51:02;93910.38;;;15.92;73.29
8501;BME280;4288;48.484;10.024;2022-09-28T09:53:36;93899.63;;;15.92;73.21
8501;BME280;4288;48.484;10.024;2022-09-28T09:56:13;93894.97;;;15.93;73.29
8501;BME280;4288;48.484;10.024;2022-09-28T09:58:43;93893.78;;;15.94;73.02
8501;BME280;4288;48.484;10.024;2022-09-28T10:01:17;93900.22;;;15.96;72.75
8501;BME280;4288;48.484;10.024;2022-09-28T10:03:47;93900.66;;;15.95;72.96
8501;BME280;4288;48.484;10.024;2022-09-28T10:06:20;93901.38;;;15.95;72.96
8501;BME280;4288;48.484;10.024;2022-09-28T10:08:59;93910.22;;;15.96;72.76
8501;BME280;4288;48.484;10.024;2022-09-28T10:11:33;93907.53;;;15.96;72.89
8501;BME280;4288;48.484;10.024;2022-09-28T10:14:03;93904.09;;;15.95;73.00
8501;BME280;4288;48.484;10.024;2022-09-28T10:16:31;93902.91;;;15.96;72.95
8501;BME280;4288;48.484;10.024;2022-09-28T10:18:59;93892.28;;;15.93;73.18
8501;BME280;4288;48.484;10.024;2022-09-28T10:21:27;93901.38;;;15.95;72.75
8501;BME280;4288;48.484;10.024;2022-09-28T10:23:57;93900.66;;;15.95;72.71
8501;BME280;4288;48.484;10.024;2022-09-28T10:26:29;93896.16;;;15.92;72.87
8501;BME280;4288;48.484;10.024;2022-09-28T10:29:02;93890.59;;;15.95;72.49
8501;BME280;4288;48.484;10.024;2022-09-28T10:31:40;93888.97;;;15.98;72.59
8501;BME280;4288;48.484;10.024;2022-09-28T10:34:12;93894.34;;;15.98;72.44
8501;BME280;4288;48.484;10.024;2022-09-28T10:36:49;93896.75;;;15.96;72.50
8501;BME280;4288;48.484;10.024;2022-09-28T10:39:28;93908.59;;;15.98;72.54
8501;BME280;4288;48.484;10.024;2022-09-28T10:42:01;93903.66;;;15.97;72.54
8501;BME280;4288;48.484;10.024;2022-09-28T10:44:32;93902.16;;;15.96;72.91
8501;BME280;4288;48.484;10.024;2022-09-28T10:47:03;93908.59;;;15.98;73.31
8501;BME280;4288;48.484;10.024;2022-09-28T10:49:39;93897.81;;;15.98;73.40
8501;BME280;4288;48.484;10.024;2022-09-28T10:52:38;93898.09;;;16.00;73.14
8501;BME280;4288;48.484;10.024;2022-09-28T10:55:27;93902.72;;;16.00;73.11
8501;BME280;4288;48.484;10.024;2022-09-28T10:57:57;93893.47;;;16.01;73.06
8501;BME280;4288;48.484;10.024;2022-09-28T11:00:37;93890.19;;;15.97;73.18
8501;BME280;4288;48.484;10.024;2022-09-28T11:03:16;93894.19;;;16.01;72.93
8501;BME280;4288;48.484;10.024;2022-09-28T11:05:53;93900.34;;;16.02;72.78
8501;BME280;4288;48.484;10.024;2022-09-28T11:08:27;93901.97;;;15.99;72.85
8501;BME280;4288;48.484;10.024;2022-09-28T11:11:07;93898.09;;;16.00;73.21
8501;BME280;4288;48.484;10.024;2022-09-28T11:13:45;93895.88;;;15.99;73.43
8501;BME280;4288;48.484;10.024;2022-09-28T11:16:27;93899.59;;;16.01;73.86
8501;BME280;4288;48.484;10.024;2022-09-28T11:18:56;93897.34;;;16.00;73.94
8501;BME280;4288;48.484;10.024;2022-09-28T11:21:26;93899.59;;;16.01;74.32
8501;BME280;4288;48.484;10.024;2022-09-28T11:24:03;93904.25;;;16.01;74.32
8501;BME280;4288;48.484;10.024;2022-09-28T11:26:37;93900.78;;;16.00;74.05
8501;BME280;4288;48.484;10.024;2022-09-28T11:29:21;93892.13;;;15.96;74.05
8501;BME280;4288;48.484;10.024;2022-09-28T11:31:49;93899.59;;;16.01;73.98
8501;BME280;4288;48.484;10.024;2022-09-28T11:34:22;93901.56;;;16.01;73.98
8501;BME280;4288;48.484;10.024;2022-09-28T11:37:23;93898.09;;;16.00;73.84
8501;BME280;4288;48.484;10.024;2022-09-28T11:40:13;93895.41;;;16.00;73.80
8501;BME280;4288;48.484;10.024;2022-09-28T11:42:48;93893.91;;;15.99;73.74
8501;BME280;4288;48.484;10.024;2022-09-28T11:45:35;93887.78;;;15.99;73.40
8501;BME280;4288;48.484;10.024;2022-09-28T11:48:08;93887.31;;;16.00;73.57
8501;BME280;4288;48.484;10.024;2022-09-28T11:50:45;93894.66;;;16.00;73.70
8501;BME280;4288;48.484;10.024;2022-09-28T11:53:23;93895.41;;;16.00;73.59
8501;BME280;4288;48.484;10.024;2022-09-28T11:55:57;93894.19;;;16.01;73.53
8501;BME280;4288;48.484;10.024;2022-09-28T11:58:31;93900.78;;;16.00;73.52
8501;BME280;4288;48.484;10.024;2022-09-28T12:01:05;93904.97;;;16.01;73.41
8501;BME280;4288;48.484;10.024;2022-09-28T12:03:39;93901.69;;;15.97;73.50
8501;BME280;4288;48.484;10.024;2022-09-28T12:06:13;93904.97;;;16.01;73.32
8501;BME280;4288;48.484;10.024;2022-09-28T12:08:45;93904.97;;;16.01;73.32
8501;BME280;4288;48.484;10.024;2022-09-28T12:11:20;93899.28;;;15.99;73.35
8501;BME280;4288;48.484;10.024;2022-09-28T12:13:52;93900.78;;;16.00;73.13
8501;BME280;4288;48.484;10.024;2022-09-28T12:16:26;93899.59;;;16.01;73.19
8501;BME280;4288;48.484;10.024;2022-09-28T12:18:58;93897.34;;;16.00;73.18
8501;BME280;4288;48.484;10.024;2022-09-28T12:21:35;93898.09;;;16.00;73.16
8501;BME280;4288;48.484;10.024;2022-09-28T12:24:12;93909.94;;;16.03;72.99
8501;BME280;4288;48.484;10.024;2022-09-28T12:26:47;93907.22;;;16.03;73.17
8501;BME280;4288;48.484;10.024;2022-09-28T12:29:23;93909.34;;;15.99;73.18
8501;BME280;4288;48.484;10.024;2022-09-28T12:32:00;93916.50;;;16.02;73.06
8501;BME280;4288;48.484;10.024;2022-09-28T12:34:30;93915.75;;;16.01;73.00
8501;BME280;4288;48.484;10.024;2022-09-28T12:37:26;93913.81;;;16.02;73.00
8501;BME280;4288;48.484;10.024;2022-09-28T12:40:31;93904.69;;;15.99;73.00
8501;BME280;4288;48.484;10.024;2022-09-28T12:43:38;93905.44;;;16.00;73.06
8501;BME280;4288;48.484;10.024;2022-09-28T12:46:29;93910.06;;;15.99;73.16
8501;BME280;4288;48.484;10.024;2022-09-28T12:49:24;93915.91;;;15.98;73.12
8501;BME280;4288;48.484;10.024;2022-09-28T12:51:55;93909.94;;;15.94;73.07
8501;BME280;4288;48.484;10.024;2022-09-28T12:57:39;93908.91;;;15.91;73.35
8501;BME280;4288;48.484;10.024;2022-09-28T13:00:12;93911.59;;;15.91;73.44
8501;BME280;4288;48.484;10.024;2022-09-28T13:03:14;93921.00;;;15.96;73.39
8501;BME280;4288;48.484;10.024;2022-09-28T13:06:18;93924.47;;;15.96;73.77
8501;BME280;4288;48.484;10.024;2022-09-28T13:09:12;93931.78;;;15.96;73.43
8501;BME280;4288;48.484;10.024;2022-09-28T13:12:04;93929.84;;;15.96;73.50
8501;BME280;4288;48.484;10.024;2022-09-28T13:18:07;93928.34;;;15.95;73.63
8501;BME280;4288;48.484;10.024;2022-09-28T13:20:45;93923.09;;;15.92;73.29
8501;BME280;4288;48.484;10.024;2022-09-28T13:23:22;93925.06;;;15.91;73.15
8501;BME280;4288;48.484;10.024;2022-09-28T13:25:54;93928.34;;;15.95;73.41
8501;BME280;4288;48.484;10.024;2022-09-28T13:28:23;93921.00;;;15.96;73.28
8501;BME280;4288;48.484;10.024;2022-09-28T13:30:53;93927.91;;;15.97;73.21
8501;BME280;4288;48.484;10.024;2022-09-28T13:33:29;93924.47;;;15.96;73.18
8501;BME280;4288;48.484;10.024;2022-09-28T13:35:59;93927.16;;;15.96;73.16
8501;BME280;4288;48.484;10.024;2022-09-28T13:38:47;93925.94;;;15.97;72.97
8501;BME280;4288;48.484;10.024;2022-09-28T13:41:24;93922.50;;;15.97;73.24
8501;BME280;4288;48.484;10.024;2022-09-28T13:44:30;93914.44;;;15.97;73.26
8501;BME280;4288;48.484;10.024;2022-09-28T13:47:12;93919.81;;;15.97;73.35
8501;BME280;4288;48.484;10.024;2022-09-28T13:49:58;93919.06;;;15.96;73.24
8501;BME280;4288;48.484;10.024;2022-09-28T13:52:45;93919.81;;;15.97;73.32
8501;BME280;4288;48.484;10.024;2022-09-28T13:55:25;93928.34;;;15.95;73.19
8501;BME280;4288;48.484;10.024;2022-09-28T13:58:00;93917.56;;;15.95;73.18
8501;BME280;4288;48.484;10.024;2022-09-28T14:00:34;93919.94;;;15.93;73.17
8501;BME280;4288;48.484;10.024;2022-09-28T14:03:20;93925.34;;;15.93;73.15
8501;BME280;4288;48.484;10.024;2022-09-28T14:06:06;93930.72;;;15.93;73.02
8501;BME280;4288;48.484;10.024;2022-09-28T14:08:44;93936.13;;;15.93;73.01
8501;BME280;4288;48.484;10.024;2022-09-28T14:11:57;93938.38;;;15.95;72.92
8501;BME280;4288;48.484;10.024;2022-09-28T14:14:46;93942.72;;;15.92;72.80
8501;BME280;4288;48.484;10.024;2022-09-28T14:17:52;93950.81;;;15.92;72.83
8501;BME280;4288;48.484;10.024;2022-09-28T14:20:25;93948.88;;;15.93;72.75
8501;BME280;4288;48.484;10.024;2022-09-28T14:23:21;93948.56;;;15.91;72.79
8501;BME280;4288;48.484;10.024;2022-09-28T14:26:13;93950.34;;;15.94;72.59
8501;BME280;4288;48.484;10.024;2022-09-28T14:28:59;93943.94;;;15.91;72.67
8501;BME280;4288;48.484;10.024;2022-09-28T14:31:28;93952.00;;;15.91;72.59
8501;BME280;4288;48.484;10.024;2022-09-28T14:33:58;93950.06;;;15.92;72.72
8501;BME280;4288;48.484;10.024;2022-09-28T14:36:32;93949.31;;;15.91;72.68
8501;BME280;4288;48.484;10.024;2022-09-28T14:39:26;93949.31;;;15.91;72.69
8501;BME280;4288;48.484;10.024;2022-09-28T14:42:15;93950.81;;;15.92;72.55
8501;BME280;4288;48.484;10.024;2022-09-28T14:45:34;93950.50;;;15.90;72.60
8501;BME280;4288;48.484;10.024;2022-09-28T14:48:17;93948.56;;;15.91;72.60
8501;BME280;4288;48.484;10.024;2022-09-28T14:50:45;93950.50;;;15.90;72.68
8501;BME280;4288;48.484;10.024;2022-09-28T14:53:18;93947.81;;;15.90;72.59
8501;BME280;4288;48.484;10.024;2022-09-28T14:55:52;93953.19;;;15.90;72.53
8501;BME280;4288;48.484;10.024;2022-09-28T14:58:23;93963.22;;;15.90;72.53
8501;BME280;4288;48.484;10.024;2022-09-28T15:01:01;93951.13;;;15.85;72.48
8501;BME280;4288;48.484;10.024;2022-09-28T15:03:32;93966.66;;;15.90;72.64
8501;BME280;4288;48.484;10.024;2022-09-28T15:06:01;93969.81;;;15.89;72.49
8501;BME280;4288;48.484;10.024;2022-09-28T15:08:37;93966.66;;;15.90;72.52
8501;BME280;4288;48.484;10.024;2022-09-28T15:11:06;93967.13;;;15.89;72.54
8501;BME280;4288;48.484;10.024;2022-09-28T15:13:37;93965.91;;;15.90;72.55
8501;BME280;4288;48.484;10.024;2022-09-28T15:16:09;93973.56;;;15.91;72.30
8501;BME280;4288;48.484;10.024;2022-09-28T15:19:15;93974.31;;;15.92;72.38
8501;BME280;4288;48.484;10.024;2022-09-28T15:21:46;93967.88;;;15.89;72.43
8501;BME280;4288;48.484;10.024;2022-09-28T15:24:27;93963.97;;;15.90;72.46
8501;BME280;4288;48.484;10.024;2022-09-28T15:26:57;93962.50;;;15.89;72.73
8501;BME280;4288;48.484;10.024;2022-09-28T15:29:24;93965.19;;;15.89;72.83
8501;BME280;4288;48.484;10.024;2022-09-28T15:31:57;93970.56;;;15.89;73.14
8501;BME280;4288;48.484;10.024;2022-09-28T15:34:29;93963.69;;;15.88;73.32
8501;BME280;4288;48.484;10.024;2022-09-28T15:37:17;93956.81;;;15.87;73.28
8501;BME280;4288;48.484;10.024;2022-09-28T15:39:46;93962.19;;;15.87;73.26
8501;BME280;4288;48.484;10.024;2022-09-28T15:42:15;93967.88;;;15.89;73.20
8501;BME280;4288;48.484;10.024;2022-09-28T15:45:03;93965.91;;;15.90;72.99
8501;BME280;4288;48.484;10.024;2022-09-28T15:47:40;93967.88;;;15.89;73.13
8501;BME280;4288;48.484;10.024;2022-09-28T15:50:20;93966.66;;;15.90;73.40
8501;BME280;4288;48.484;10.024;2022-09-28T15:52:54;93963.38;;;15.86;73.41
8501;BME280;4288;48.484;10.024;2022-09-28T15:55:26;93960.53;;;15.90;73.69
8501;BME280;4288;48.484;10.024;2022-09-28T15:58:06;93965.19;;;15.89;73.48
8501;BME280;4288;48.484;10.024;2022-09-28T16:00:34;93962.50;;;15.89;73.60
8501;BME280;4288;48.484;10.024;2022-09-28T16:03:23;93973.28;;;15.89;73.48
8501;BME280;4288;48.484;10.024;2022-09-28T16:06:05;93971.75;;;15.88;73.43
8501;BME280;4288;48.484;10.024;2022-09-28T16:08:38;93970.28;;;15.87;73.28
8501;BME280;4288;48.484;10.024;2022-09-28T16:11:13;93969.53;;;15.87;73.29
8501;BME280;4288;48.484;10.024;2022-09-28T16:13:52;93974.91;;;15.87;73.28
8501;BME280;4288;48.484;10.024;2022-09-28T16:16:27;93976.84;;;15.86;73.41
8501;BME280;4288;48.484;10.024;2022-09-28T16:18:57;93976.09;;;15.86;73.24
8501;BME280;4288;48.484;10.024;2022-09-28T16:21:44;93974.91;;;15.87;73.13
8501;BME280;4288;48.484;10.024;2022-09-28T16:24:23;93981.06;;;15.87;73.04
8501;BME280;4288;48.484;10.024;2022-09-28T16:26:57;93974.63;;;15.85;73.13
8501;BME280;4288;48.484;10.024;2022-09-28T16:29:32;93978.38;;;15.87;73.04
8501;BME280;4288;48.484;10.024;2022-09-28T16:47:43;93973.69;;;15.88;72.88
8501;BME280;4288;48.484;10.024;2022-09-28T16:50:14;93976.41;;;15.88;72.88
8501;BME280;4288;48.484;10.024;2022-09-28T16:52:42;93971.16;;;15.84;73.00
8501;BME280;4288;48.484;10.024;2022-09-28T16:55:26;93978.78;;;15.86;73.06
8501;BME280;4288;48.484;10.024;2022-09-28T17:21:19;93986.16;;;15.85;73.29
8501;BME280;4288;48.484;10.024;2022-09-28T17:23:48;93987.34;;;15.84;73.19
8501;BME280;4288;48.484;10.024;2022-09-28T17:26:18;93991.25;;;15.83;73.27
8501;BME280;4288;48.484;10.024;2022-09-28T17:28:46;93994.22;;;15.85;73.18
8501;BME280;4288;48.484;10.024;2022-09-28T17:33:49;94002.00;;;15.83;72.94
8501;BME280;4288;48.484;10.024;2022-09-28T17:36:18;94002.00;;;15.83;72.97
8501;BME280;4288;48.484;10.024;2022-09-28T17:38:46;94003.94;;;15.83;73.04
8501;BME280;4288;48.484;10.024;2022-09-28T17:41:16;94008.75;;;15.79;73.12
8501;BME280;4288;48.484;10.024;2022-09-28T17:43:44;94015.59;;;15.80;73.28
8501;BME280;4288;48.484;10.024;2022-09-28T17:48:46;94016.38;;;15.80;73.45
8501;BME280;4288;48.484;10.024;2022-09-28T17:51:13;94013.66;;;15.80;73.35
8501;BME280;4288;48.484;10.024;2022-09-28T17:53:42;94014.88;;;15.79;73.41
8501;BME280;4288;48.484;10.024;2022-09-28T17:56:09;94016.38;;;15.80;73.26
8501;BME280;4288;48.484;10.024;2022-09-28T17:58:36;94017.56;;;15.79;73.26
8501;BME280;4288;48.484;10.024;2022-09-28T18:01:04;94024.44;;;15.80;73.29
8501;BME280;4288;48.484;10.024;2022-09-28T18:03:31;94020.28;;;15.79;73.19
8501;BME280;4288;48.484;10.024;2022-09-28T18:06:01;94018.47;;;15.76;73.05
8501;BME280;4288;48.484;10.024;2022-09-28T18:08:29;94023.84;;;15.76;73.08
8501;BME280;4288;48.484;10.024;2022-09-28T18:10:58;94026.84;;;15.78;73.09
8501;BME280;4288;48.484;10.024;2022-09-28T18:13:26;94033.44;;;15.77;73.01
8501;BME280;4288;48.484;10.024;2022-09-28T18:15:54;94036.84;;;15.78;73.01
8501;BME280;4288;48.484;10.024;2022-09-28T18:18:22;94032.69;;;15.77;73.08
8501;BME280;4288;48.484;10.024;2022-09-28T18:20:50;94043.47;;;15.77;73.07
8501;BME280;4288;48.484;10.024;2022-09-28T18:23:17;94043.91;;;15.75;73.14
8501;BME280;4288;48.484;10.024;2022-09-28T18:25:45;94055.44;;;15.76;72.99
8501;BME280;4288;48.484;10.024;2022-09-28T18:28:14;94050.06;;;15.76;72.93
8501;BME280;4288;48.484;10.024;2022-09-28T18:30:43;94054.22;;;15.77;72.93
8501;BME280;4288;48.484;10.024;2022-09-28T18:33:12;94056.16;;;15.76;72.92
8501;BME280;4288;48.484;10.024;2022-09-28T18:35:40;94052.44;;;15.74;72.80
8501;BME280;4288;48.484;10.024;2022-09-28T18:38:15;94064.69;;;15.75;72.84
8501;BME280;4288;48.484;10.024;2022-09-28T18:40:42;94058.56;;;15.74;72.62
8501;BME280;4288;48.484;10.024;2022-09-28T18:43:09;94068.31;;;15.72;72.86
8501;BME280;4288;48.484;10.024;2022-09-28T18:45:38;94070.53;;;15.73;72.86
8501;BME280;4288;48.484;10.024;2022-09-28T18:48:06;94079.38;;;15.74;72.91
8501;BME280;4288;48.484;10.024;2022-09-28T18:50:33;94082.50;;;15.72;72.89
8501;BME280;4288;48.484;10.024;2022-09-28T18:53:00;94083.25;;;15.73;72.84
8501;BME280;4288;48.484;10.024;2022-09-28T18:55:38;94087.88;;;15.72;72.86
8501;BME280;4288;48.484;10.024;2022-09-28T18:58:06;94083.25;;;15.73;72.74
8501;BME280;4288;48.484;10.024;2022-09-28T19:00:35;94087.16;;;15.72;72.80
8501;BME280;4288;48.484;10.024;2022-09-28T19:03:06;94092.53;;;15.72;72.77
8501;BME280;4288;48.484;10.024;2022-09-28T19:05:40;94098.66;;;15.72;72.66
8501;BME280;4288;48.484;10.024;2022-09-28T19:08:07;94096.41;;;15.71;72.75
8501;BME280;4288;48.484;10.024;2022-09-28T19:10:34;94097.19;;;15.71;72.81
8501;BME280;4288;48.484;10.024;2022-09-28T19:13:02;94098.34;;;15.70;72.44
8501;BME280;4288;48.484;10.024;2022-09-28T19:15:29;94098.34;;;15.70;72.66
8501;BME280;4288;48.484;10.024;2022-09-28T19:17:56;94095.66;;;15.70;72.74
8501;BME280;4288;48.484;10.024;2022-09-28T19:20:24;94101.06;;;15.70;72.65
8501;BME280;4288;48.484;10.024;2022-09-28T19:22:51;94096.25;;;15.65;72.59
8501;BME280;4288;48.484;10.024;2022-09-28T19:25:19;94105.25;;;15.71;72.69
8501;BME280;4288;48.484;10.024;2022-09-28T19:27:46;94099.56;;;15.69;72.62
8501;BME280;4288;48.484;10.024;2022-09-28T19:30:13;94104.94;;;15.69;72.67
8501;BME280;4288;48.484;10.024;2022-09-28T19:32:40;94108.81;;;15.68;72.70
8501;BME280;4288;48.484;10.024;2022-09-28T19:35:08;94108.09;;;15.68;72.73
8501;BME280;4288;48.484;10.024;2022-09-28T19:37:38;94107.66;;;15.69;72.62
8501;BME280;4288;48.484;10.024;2022-09-28T19:40:06;94110.34;;;15.69;72.52
8501;BME280;4288;48.484;10.024;2022-09-28T19:42:34;94108.81;;;15.68;72.54
8501;BME280;4288;48.484;10.024;2022-09-28T19:45:01;94114.22;;;15.68;72.62
8501;BME280;4288;48.484;10.024;2022-09-28T19:47:28;94114.22;;;15.68;72.51
8501;BME280;4288;48.484;10.024;2022-09-28T19:49:56;94110.50;;;15.66;72.54
8501;BME280;4288;48.484;10.024;2022-09-28T19:52:23;94114.97;;;15.69;72.55
8501;BME280;4288;48.484;10.024;2022-09-28T19:54:52;94121.56;;;15.68;72.50
8501;BME280;4288;48.484;10.024;2022-09-28T19:57:22;94125.00;;;15.68;72.53
8501;BME280;4288;48.484;10.024;2022-09-28T19:59:50;94122.75;;;15.67;72.45
8501;BME280;4288;48.484;10.024;2022-09-28T20:02:18;94123.19;;;15.65;72.43
8501;BME280;4288;48.484;10.024;2022-09-28T20:04:45;94122.00;;;15.66;72.47
8501;BME280;4288;48.484;10.024;2022-09-28T20:07:12;94118.88;;;15.68;72.42
8501;BME280;4288;48.484;10.024;2022-09-28T20:09:40;94119.59;;;15.68;72.43
8501;BME280;4288;48.484;10.024;2022-09-28T20:12:09;94120.81;;;15.67;72.16
8501;BME280;4288;48.484;10.024;2022-09-28T20:14:36;94126.94;;;15.68;72.39
8501;BME280;4288;48.484;10.024;2022-09-28T20:17:03;94115.88;;;15.66;72.39
8501;BME280;4288;48.484;10.024;2022-09-28T20:19:30;94119.75;;;15.65;72.57
8501;BME280;4288;48.484;10.024;2022-09-28T20:21:58;94121.69;;;15.64;72.68
8501;BME280;4288;48.484;10.024;2022-09-28T20:24:27;94119.28;;;15.66;72.66
8501;BME280;4288;48.484;10.024;2022-09-28T20:26:54;94123.19;;;15.65;72.79
8501;BME280;4288;48.484;10.024;2022-09-28T20:29:23;94123.66;;;15.64;72.89
8501;BME280;4288;48.484;10.024;2022-09-28T20:31:50;94125.88;;;15.65;72.77
8501;BME280;4288;48.484;10.024;2022-09-28T20:34:17;94130.06;;;15.66;72.75
8501;BME280;4288;48.484;10.024;2022-09-28T20:36:44;94127.06;;;15.64;72.67
8501;BME280;4288;48.484;10.024;2022-09-28T20:39:12;94122.88;;;15.63;72.72
8501;BME280;4288;48.484;10.024;2022-09-28T20:41:39;94123.97;;;15.66;72.57
8501;BME280;4288;48.484;10.024;2022-09-28T20:44:06;94130.06;;;15.66;72.54
8501;BME280;4288;48.484;10.024;2022-09-28T20:46:36;94132.47;;;15.64;72.68
8501;BME280;4288;48.484;10.024;2022-09-28T20:49:04;94114.06;;;15.63;72.59
8501;BME280;4288;48.484;10.024;2022-09-28T20:51:31;94132.16;;;15.62;72.67
8501;BME280;4288;48.484;10.024;2022-09-28T20:53:59;94135.59;;;15.63;72.52
8501;BME280;4288;48.484;10.024;2022-09-28T20:56:28;94145.63;;;15.62;72.64
8501;BME280;4288;48.484;10.024;2022-09-28T20:58:55;94144.88;;;15.62;72.47
8501;BME280;4288;48.484;10.024;2022-09-28T21:01:24;94143.38;;;15.61;72.64